createdAt,value
2022-10-07T00:01:59.873Z,95.82
2022-10-07T00:07:02.791Z,95.27
2022-10-07T00:12:07.626Z,95.34
2022-10-07T00:17:10.520Z,95.18
2022-10-07T00:22:13.893Z,95.49
2022-10-07T00:27:18.352Z,96.39
2022-10-07T00:32:21.658Z,96.47
2022-10-07T00:37:24.630Z,96.13
2022-10-07T00:42:30.625Z,96.65
2022-10-07T00:47:36.104Z,96.27
2022-10-07T00:52:43.582Z,97.07
2022-10-07T00:57:50.368Z,98.87
2022-10-07T01:02:53.646Z,97.11
2022-10-07T01:07:59.335Z,96.87
2022-10-07T01:13:14.646Z,97.52
2022-10-07T01:18:24.084Z,97.22
2022-10-07T01:24:00.253Z,97.19
2022-10-07T01:29:11.237Z,96.82
2022-10-07T01:34:16.116Z,96.67
2022-10-07T01:39:25.597Z,97.29
2022-10-07T01:44:31.683Z,97.16
2022-10-07T01:49:34.718Z,98.24
2022-10-07T01:54:51.630Z,98.69
2022-10-07T02:00:11.247Z,98.83
2022-10-07T02:05:27.245Z,98.96
2022-10-07T02:10:35.563Z,98.21
2022-10-07T02:15:48.928Z,99.10
2022-10-07T02:20:53.922Z,98.52
2022-10-07T02:25:57.831Z,98.68
2022-10-07T02:31:05.338Z,98.22
2022-10-07T02:36:15.893Z,98.37
2022-10-07T02:41:31.404Z,98.43
2022-10-07T02:46:48.834Z,99.44
2022-10-07T02:52:01.687Z,98.69
2022-10-07T02:57:08.968Z,98.55
2022-10-07T03:02:20.699Z,99.35
2022-10-07T03:07:25.097Z,99.03
2022-10-07T03:12:29.048Z,99.58
2022-10-07T03:17:33.831Z,99.35
2022-10-07T03:22:37.405Z,99.56
2022-10-07T03:27:42.658Z,99.43
2022-10-07T03:32:47.787Z,100.00
2022-10-07T03:37:51.166Z,100.00
2022-10-07T03:42:54.699Z,100.00
2022-10-07T03:47:59.410Z,100.00
2022-10-07T03:53:02.486Z,100.00
2022-10-07T03:58:05.575Z,100.00
2022-10-07T04:03:10.632Z,100.00
2022-10-07T04:08:18.024Z,100.00
2022-10-07T04:13:21.311Z,100.00
2022-10-07T04:18:25.875Z,100.00
2022-10-07T04:23:30.111Z,100.00
2022-10-07T04:28:33.252Z,100.00
2022-10-07T04:33:46.543Z,100.00
2022-10-07T04:38:55.140Z,100.00
2022-10-07T04:44:03.373Z,100.00
2022-10-07T04:49:13.319Z,100.00
2022-10-07T04:54:16.795Z,100.00
2022-10-07T04:59:30.182Z,100.00
2022-10-07T05:04:35.751Z,100.00
2022-10-07T05:09:39.626Z,100.00
2022-10-07T05:14:43.945Z,100.00
2022-10-07T05:19:50.257Z,100.00
2022-10-07T05:24:54.549Z,100.00
2022-10-07T05:29:57.642Z,100.00
2022-10-07T05:35:02.313Z,100.00
2022-10-07T05:40:06.292Z,100.00
2022-10-07T05:45:10.275Z,100.00
2022-10-07T05:50:16.805Z,100.00
2022-10-07T05:55:20.010Z,100.00
2022-10-07T06:00:23.550Z,100.00
2022-10-07T06:05:33.891Z,100.00
2022-10-07T06:10:54.478Z,100.00
2022-10-07T06:16:01.788Z,100.00
2022-10-07T06:21:07.555Z,100.00
2022-10-07T06:26:13.649Z,100.00
2022-10-07T06:31:22.447Z,100.00
2022-10-07T06:36:30.598Z,100.00
2022-10-07T06:41:34.820Z,100.00
2022-10-07T06:47:07.766Z,100.00
2022-10-07T06:52:15.239Z,100.00
2022-10-07T06:57:44.331Z,100.00
2022-10-07T07:02:42.286Z,100.00
2022-10-07T07:07:47.185Z,100.00
2022-10-07T07:12:51.131Z,100.00
2022-10-07T07:17:54.461Z,100.00
2022-10-07T07:22:59.029Z,99.49
2022-10-07T07:28:02.359Z,99.99
2022-10-07T07:33:06.105Z,99.33
2022-10-07T07:38:11.140Z,99.82
2022-10-07T07:43:14.334Z,99.33
2022-10-07T07:48:18.532Z,98.54
2022-10-07T07:53:23.332Z,97.97
2022-10-07T07:58:29.178Z,97.05
2022-10-07T08:03:33.101Z,97.45
2022-10-07T08:08:38.597Z,98.66
2022-10-07T08:13:42.582Z,97.52
2022-10-07T08:18:50.527Z,97.95
2022-10-07T08:24:00.509Z,98.39
2022-10-07T08:29:07.112Z,97.85
2022-10-07T08:34:12.230Z,97.89
2022-10-07T08:39:33.596Z,97.28
2022-10-07T08:44:41.016Z,96.94
2022-10-07T08:49:55.326Z,94.63
2022-10-07T08:55:01.222Z,95.30
2022-10-07T09:00:08.084Z,95.58
2022-10-07T09:05:19.977Z,96.01
2022-10-07T09:10:33.282Z,94.89
2022-10-07T09:15:42.576Z,95.33
2022-10-07T09:20:52.563Z,94.31
2022-10-07T09:25:57.997Z,95.12
2022-10-07T09:31:04.201Z,94.24
2022-10-07T09:42:52.268Z,92.99
2022-10-07T09:47:57.889Z,92.36
2022-10-07T09:53:03.066Z,92.76
2022-10-07T09:58:19.141Z,93.90
2022-10-07T10:03:29.217Z,89.80
2022-10-07T10:08:34.999Z,88.03
2022-10-07T10:13:41.797Z,87.94
2022-10-07T10:18:55.766Z,83.58
2022-10-07T10:24:00.560Z,83.35
2022-10-07T10:29:15.083Z,81.34
2022-10-07T10:34:32.699Z,82.37
2022-10-07T10:39:47.767Z,79.14
2022-10-07T10:45:08.171Z,80.36
2022-10-07T10:50:19.303Z,76.13
2022-10-07T10:55:41.712Z,76.51
2022-10-07T11:00:59.683Z,76.29
2022-10-07T11:06:07.740Z,74.43
2022-10-07T11:11:14.078Z,76.74
2022-10-07T11:16:26.773Z,77.27
2022-10-07T11:21:38.048Z,78.61
2022-10-07T11:26:45.268Z,75.97
2022-10-07T11:31:57.052Z,74.09
2022-10-07T11:37:06.173Z,72.97
2022-10-07T11:42:15.861Z,75.05
2022-10-07T11:47:25.595Z,71.74
2022-10-07T11:52:35.843Z,78.35
2022-10-07T11:57:43.339Z,78.61
2022-10-07T12:02:49.604Z,77.78
2022-10-07T12:08:01.444Z,75.59
2022-10-07T12:13:40.606Z,71.58
2022-10-07T12:19:17.936Z,73.78
2022-10-07T12:24:24.345Z,74.58
2022-10-07T12:29:49.551Z,74.16
2022-10-07T12:34:55.735Z,70.03
2022-10-07T12:40:00.566Z,72.66
2022-10-07T12:45:07.211Z,74.37
2022-10-07T12:50:17.318Z,72.29
2022-10-07T12:55:29.166Z,71.54
2022-10-07T13:00:33.127Z,75.41
2022-10-07T13:06:14.712Z,72.58
2022-10-07T13:11:47.709Z,73.36
2022-10-07T13:16:56.721Z,73.62
2022-10-07T13:22:09.585Z,74.54
2022-10-07T13:27:18.993Z,74.63
2022-10-07T13:32:25.460Z,75.10
2022-10-07T13:37:31.430Z,73.65
2022-10-07T13:42:36.157Z,73.86
2022-10-07T13:47:39.816Z,71.01
2022-10-07T13:52:47.208Z,69.86
2022-10-07T13:57:52.609Z,75.22
2022-10-07T14:02:56.045Z,77.86
2022-10-07T14:08:01.275Z,77.98
2022-10-07T14:13:07.323Z,76.80
2022-10-07T14:18:12.396Z,77.48
2022-10-07T14:23:26.540Z,78.05
2022-10-07T14:28:33.113Z,76.44
2022-10-07T14:34:01.416Z,76.73
2022-10-07T14:39:23.075Z,79.41
2022-10-07T14:44:27.708Z,77.03
2022-10-07T14:49:33.262Z,78.17
2022-10-07T14:54:36.367Z,75.49
2022-10-07T14:59:40.957Z,77.47
2022-10-07T15:04:47.725Z,77.64
2022-10-07T15:10:00.698Z,75.50
2022-10-07T15:15:06.873Z,76.78
2022-10-07T15:20:14.048Z,79.94
2022-10-07T15:25:18.315Z,79.48
2022-10-07T15:30:34.445Z,76.21
2022-10-07T15:35:42.138Z,79.90
2022-10-07T15:41:01.182Z,77.40
2022-10-07T15:46:05.634Z,79.06
2022-10-07T15:51:08.627Z,80.26
2022-10-07T15:56:16.016Z,80.73
2022-10-07T16:01:20.912Z,79.05
2022-10-07T16:06:26.701Z,80.52
2022-10-07T16:11:38.659Z,81.04
2022-10-07T16:16:45.576Z,81.39
2022-10-07T16:21:52.770Z,80.98
2022-10-07T16:26:57.495Z,81.43
2022-10-07T16:32:02.186Z,82.17
2022-10-07T16:37:05.458Z,82.31
2022-10-07T16:42:15.005Z,83.65
2022-10-07T16:47:19.518Z,83.63
2022-10-07T16:52:22.740Z,84.42
2022-10-07T16:57:25.711Z,84.02
2022-10-07T17:02:31.157Z,84.65
2022-10-07T17:07:34.562Z,85.13
2022-10-07T17:12:38.809Z,85.36
2022-10-07T17:17:44.033Z,85.48
2022-10-07T17:22:47.847Z,86.48
2022-10-07T17:27:52.064Z,86.44
2022-10-07T17:33:00.141Z,86.31
2022-10-07T17:38:05.979Z,86.75
2022-10-07T17:43:09.233Z,86.60
2022-10-07T17:48:16.170Z,86.85
2022-10-07T17:53:19.104Z,87.11
2022-10-07T17:58:22.289Z,87.23
2022-10-07T18:03:27.616Z,87.32
2022-10-07T18:08:31.650Z,87.68
2022-10-07T18:13:52.966Z,87.92
2022-10-07T18:18:58.323Z,87.86
2022-10-07T18:24:01.928Z,87.82
2022-10-07T18:29:05.271Z,87.97
2022-10-07T18:34:12.120Z,87.76
2022-10-07T18:39:15.448Z,88.10
2022-10-07T18:44:18.694Z,88.41
2022-10-07T18:49:23.502Z,88.24
2022-10-07T18:54:26.765Z,88.30
2022-10-07T18:59:30.026Z,88.23
2022-10-07T19:04:34.431Z,88.47
2022-10-07T19:09:37.771Z,88.37
2022-10-07T19:14:40.870Z,88.52
2022-10-07T19:19:45.964Z,88.27
2022-10-07T19:25:08.221Z,88.50
2022-10-07T19:30:12.044Z,88.67
2022-10-07T19:35:16.598Z,88.69
2022-10-07T19:40:19.775Z,89.13
2022-10-07T19:45:23.116Z,89.42
2022-10-07T19:50:27.505Z,89.38
2022-10-07T19:55:31.746Z,89.51
2022-10-07T20:00:35.024Z,89.44
2022-10-07T20:05:42.116Z,89.68
2022-10-07T20:10:45.262Z,89.67
2022-10-07T20:15:48.455Z,89.96
2022-10-07T20:20:52.946Z,90.03
2022-10-07T20:25:56.626Z,90.67
2022-10-07T20:31:04.817Z,90.62
2022-10-07T20:36:10.776Z,90.91
2022-10-07T20:41:31.942Z,90.91
2022-10-07T20:46:37.817Z,91.18
2022-10-07T20:51:42.340Z,91.14
2022-10-07T20:56:45.801Z,91.08
2022-10-07T21:01:49.167Z,91.38
2022-10-07T21:06:54.498Z,91.69
2022-10-07T21:11:57.887Z,91.70
2022-10-07T21:17:01.316Z,91.61
2022-10-07T21:22:07.021Z,92.15
2022-10-07T21:27:10.870Z,92.04
2022-10-07T21:32:14.528Z,92.63
2022-10-07T21:37:19.715Z,92.46
2022-10-07T21:42:22.708Z,92.85
2022-10-07T21:47:26.065Z,92.60
2022-10-07T21:52:32.562Z,92.93
2022-10-07T21:57:35.896Z,93.12
2022-10-07T22:02:39.195Z,92.81
2022-10-07T22:08:01.228Z,93.45
2022-10-07T22:13:05.056Z,93.45
2022-10-07T22:18:08.044Z,93.88
2022-10-07T22:23:12.375Z,93.15
2022-10-07T22:28:15.401Z,93.83
2022-10-07T22:33:18.440Z,94.10
2022-10-07T22:38:24.506Z,95.86
2022-10-07T22:43:27.558Z,96.27
2022-10-07T22:48:31.425Z,95.85
2022-10-07T22:53:37.022Z,95.12
2022-10-07T22:58:41.678Z,95.63
2022-10-07T23:03:46.498Z,95.32
2022-10-07T23:08:51.130Z,96.63
2022-10-07T23:13:54.614Z,96.58
2022-10-07T23:18:57.885Z,96.65
2022-10-07T23:24:08.484Z,97.69
2022-10-07T23:29:12.261Z,97.59
2022-10-07T23:34:15.512Z,98.73
2022-10-07T23:39:20.334Z,97.78
2022-10-07T23:44:24.058Z,99.65
2022-10-07T23:49:27.549Z,100.00
2022-10-07T23:54:31.825Z,100.00
2022-10-07T23:59:35.126Z,100.00
